sensor_id;sensor_type;location;lat;lon;timestamp;P1;durP1;ratioP1;P2;durP2;ratioP2
50731;SDS011;36700;50.488;2.544;2023-08-31T00:00:42;6.75;;;1.90;;
50731;SDS011;36700;50.488;2.544;2023-08-31T00:03:08;6.55;;;1.77;;
50731;SDS011;36700;50.488;2.544;2023-08-31T00:05:39;6.47;;;1.92;;
50731;SDS011;36700;50.488;2.544;2023-08-31T00:08:06;6.15;;;1.70;;
50731;SDS011;36700;50.488;2.544;2023-08-31T00:10:33;3.67;;;1.55;;
50731;SDS011;36700;50.488;2.544;2023-08-31T00:13:01;3.83;;;1.58;;
50731;SDS011;36700;50.488;2.544;2023-08-31T00:15:27;5.80;;;1.80;;
50731;SDS011;36700;50.488;2.544;2023-08-31T00:17:54;7.32;;;1.63;;
50731;SDS011;36700;50.488;2.544;2023-08-31T00:20:20;4.75;;;1.63;;
50731;SDS011;36700;50.488;2.544;2023-08-31T00:22:47;3.03;;;1.27;;
50731;SDS011;36700;50.488;2.544;2023-08-31T00:25:13;5.65;;;1.55;;
50731;SDS011;36700;50.488;2.544;2023-08-31T00:27:40;5.72;;;1.75;;
50731;SDS011;36700;50.488;2.544;2023-08-31T00:30:06;4.38;;;1.85;;
50731;SDS011;36700;50.488;2.544;2023-08-31T00:32:34;5.63;;;1.55;;
50731;SDS011;36700;50.488;2.544;2023-08-31T00:35:00;4.75;;;1.60;;
50731;SDS011;36700;50.488;2.544;2023-08-31T00:37:26;5.82;;;1.58;;
50731;SDS011;36700;50.488;2.544;2023-08-31T00:39:52;4.70;;;1.48;;
50731;SDS011;36700;50.488;2.544;2023-08-31T00:42:18;4.70;;;1.40;;
50731;SDS011;36700;50.488;2.544;2023-08-31T00:44:44;4.60;;;1.90;;
50731;SDS011;36700;50.488;2.544;2023-08-31T00:47:12;5.85;;;1.73;;
50731;SDS011;36700;50.488;2.544;2023-08-31T00:49:40;5.75;;;1.80;;
50731;SDS011;36700;50.488;2.544;2023-08-31T00:52:06;6.80;;;1.70;;
50731;SDS011;36700;50.488;2.544;2023-08-31T00:54:33;5.25;;;1.67;;
50731;SDS011;36700;50.488;2.544;2023-08-31T00:57:00;5.97;;;1.67;;
50731;SDS011;36700;50.488;2.544;2023-08-31T00:59:26;3.72;;;1.40;;
50731;SDS011;36700;50.488;2.544;2023-08-31T01:10:25;4.82;;;1.50;;
50731;SDS011;36700;50.488;2.544;2023-08-31T01:15:46;4.00;;;1.42;;
50731;SDS011;36700;50.488;2.544;2023-08-31T01:18:16;7.33;;;1.77;;
50731;SDS011;36700;50.488;2.544;2023-08-31T01:20:47;4.00;;;1.48;;
50731;SDS011;36700;50.488;2.544;2023-08-31T01:23:20;5.40;;;1.50;;
50731;SDS011;36700;50.488;2.544;2023-08-31T01:25:54;4.18;;;1.30;;
50731;SDS011;36700;50.488;2.544;2023-08-31T01:28:20;3.78;;;1.50;;
50731;SDS011;36700;50.488;2.544;2023-08-31T01:30:46;5.43;;;1.70;;
50731;SDS011;36700;50.488;2.544;2023-08-31T01:33:13;4.43;;;1.55;;
50731;SDS011;36700;50.488;2.544;2023-08-31T01:35:40;7.90;;;1.80;;
50731;SDS011;36700;50.488;2.544;2023-08-31T01:38:11;6.75;;;1.70;;
50731;SDS011;36700;50.488;2.544;2023-08-31T01:40:44;7.00;;;1.80;;
50731;SDS011;36700;50.488;2.544;2023-08-31T01:43:15;3.75;;;1.50;;
50731;SDS011;36700;50.488;2.544;2023-08-31T01:45:43;5.15;;;1.83;;
50731;SDS011;36700;50.488;2.544;2023-08-31T01:48:11;6.38;;;1.73;;
50731;SDS011;36700;50.488;2.544;2023-08-31T01:50:39;4.70;;;1.55;;
50731;SDS011;36700;50.488;2.544;2023-08-31T01:53:05;5.40;;;1.65;;
50731;SDS011;36700;50.488;2.544;2023-08-31T01:55:32;8.43;;;1.80;;
50731;SDS011;36700;50.488;2.544;2023-08-31T01:57:58;3.88;;;1.55;;
50731;SDS011;36700;50.488;2.544;2023-08-31T02:00:24;5.30;;;1.60;;
50731;SDS011;36700;50.488;2.544;2023-08-31T02:02:51;4.72;;;1.48;;
50731;SDS011;36700;50.488;2.544;2023-08-31T02:05:17;7.05;;;1.88;;
50731;SDS011;36700;50.488;2.544;2023-08-31T02:07:43;4.80;;;1.65;;
50731;SDS011;36700;50.488;2.544;2023-08-31T02:10:09;6.53;;;1.85;;
50731;SDS011;36700;50.488;2.544;2023-08-31T02:12:35;4.18;;;1.67;;
50731;SDS011;36700;50.488;2.544;2023-08-31T02:15:04;4.38;;;1.60;;
50731;SDS011;36700;50.488;2.544;2023-08-31T02:17:31;2.80;;;1.48;;
50731;SDS011;36700;50.488;2.544;2023-08-31T02:19:57;5.45;;;1.63;;
50731;SDS011;36700;50.488;2.544;2023-08-31T02:22:23;4.88;;;1.70;;
50731;SDS011;36700;50.488;2.544;2023-08-31T02:24:49;5.22;;;1.60;;
50731;SDS011;36700;50.488;2.544;2023-08-31T02:27:15;5.88;;;1.75;;
50731;SDS011;36700;50.488;2.544;2023-08-31T02:29:41;4.72;;;1.52;;
50731;SDS011;36700;50.488;2.544;2023-08-31T02:32:07;4.88;;;1.58;;
50731;SDS011;36700;50.488;2.544;2023-08-31T02:34:33;5.13;;;1.45;;
50731;SDS011;36700;50.488;2.544;2023-08-31T02:36:59;5.03;;;1.40;;
50731;SDS011;36700;50.488;2.544;2023-08-31T02:39:25;3.85;;;1.48;;
50731;SDS011;36700;50.488;2.544;2023-08-31T02:41:51;3.63;;;1.60;;
50731;SDS011;36700;50.488;2.544;2023-08-31T02:44:17;6.43;;;1.92;;
50731;SDS011;36700;50.488;2.544;2023-08-31T02:46:43;5.32;;;1.55;;
50731;SDS011;36700;50.488;2.544;2023-08-31T02:49:09;5.50;;;1.73;;
50731;SDS011;36700;50.488;2.544;2023-08-31T02:51:34;6.72;;;1.80;;
50731;SDS011;36700;50.488;2.544;2023-08-31T02:54:00;3.88;;;1.48;;
50731;SDS011;36700;50.488;2.544;2023-08-31T02:56:26;5.93;;;1.77;;
50731;SDS011;36700;50.488;2.544;2023-08-31T02:58:52;5.95;;;1.98;;
50731;SDS011;36700;50.488;2.544;2023-08-31T03:01:18;4.55;;;1.77;;
50731;SDS011;36700;50.488;2.544;2023-08-31T03:03:44;6.13;;;1.63;;
50731;SDS011;36700;50.488;2.544;2023-08-31T03:06:11;3.88;;;1.75;;
50731;SDS011;36700;50.488;2.544;2023-08-31T03:08:37;5.53;;;1.98;;
50731;SDS011;36700;50.488;2.544;2023-08-31T03:11:04;4.07;;;1.58;;
50731;SDS011;36700;50.488;2.544;2023-08-31T03:13:31;5.78;;;1.80;;
50731;SDS011;36700;50.488;2.544;2023-08-31T03:15:57;6.00;;;1.80;;
50731;SDS011;36700;50.488;2.544;2023-08-31T03:18:23;6.75;;;1.80;;
50731;SDS011;36700;50.488;2.544;2023-08-31T03:20:49;5.13;;;1.70;;
50731;SDS011;36700;50.488;2.544;2023-08-31T03:23:15;4.93;;;1.60;;
50731;SDS011;36700;50.488;2.544;2023-08-31T03:25:41;6.95;;;1.98;;
50731;SDS011;36700;50.488;2.544;2023-08-31T03:28:08;5.03;;;1.70;;
50731;SDS011;36700;50.488;2.544;2023-08-31T03:30:34;3.83;;;1.40;;
50731;SDS011;36700;50.488;2.544;2023-08-31T03:33:00;2.88;;;1.40;;
50731;SDS011;36700;50.488;2.544;2023-08-31T03:35:26;4.53;;;1.60;;
50731;SDS011;36700;50.488;2.544;2023-08-31T03:37:55;5.28;;;1.75;;
50731;SDS011;36700;50.488;2.544;2023-08-31T03:40:21;4.50;;;1.60;;
50731;SDS011;36700;50.488;2.544;2023-08-31T03:42:49;5.25;;;1.50;;
50731;SDS011;36700;50.488;2.544;2023-08-31T03:45:15;4.15;;;1.52;;
50731;SDS011;36700;50.488;2.544;2023-08-31T03:47:41;4.63;;;1.52;;
50731;SDS011;36700;50.488;2.544;2023-08-31T03:50:07;4.25;;;1.50;;
50731;SDS011;36700;50.488;2.544;2023-08-31T03:52:36;5.30;;;1.80;;
50731;SDS011;36700;50.488;2.544;2023-08-31T03:55:02;5.53;;;1.63;;
50731;SDS011;36700;50.488;2.544;2023-08-31T03:57:28;6.07;;;1.67;;
50731;SDS011;36700;50.488;2.544;2023-08-31T03:59:54;3.95;;;1.42;;
50731;SDS011;36700;50.488;2.544;2023-08-31T04:02:20;5.53;;;1.40;;
50731;SDS011;36700;50.488;2.544;2023-08-31T04:04:46;4.07;;;1.52;;
50731;SDS011;36700;50.488;2.544;2023-08-31T04:07:12;4.72;;;1.60;;
50731;SDS011;36700;50.488;2.544;2023-08-31T04:09:37;5.78;;;1.67;;
50731;SDS011;36700;50.488;2.544;2023-08-31T04:12:03;4.13;;;1.60;;
50731;SDS011;36700;50.488;2.544;2023-08-31T04:14:30;4.28;;;1.40;;
50731;SDS011;36700;50.488;2.544;2023-08-31T04:16:56;5.35;;;1.50;;
50731;SDS011;36700;50.488;2.544;2023-08-31T04:19:21;3.80;;;1.42;;
50731;SDS011;36700;50.488;2.544;2023-08-31T04:21:48;5.35;;;1.90;;
50731;SDS011;36700;50.488;2.544;2023-08-31T04:24:14;5.90;;;1.80;;
50731;SDS011;36700;50.488;2.544;2023-08-31T04:26:40;5.15;;;1.45;;
50731;SDS011;36700;50.488;2.544;2023-08-31T04:29:06;4.38;;;1.30;;
50731;SDS011;36700;50.488;2.544;2023-08-31T04:31:32;6.88;;;1.65;;
50731;SDS011;36700;50.488;2.544;2023-08-31T04:33:58;6.20;;;1.23;;
50731;SDS011;36700;50.488;2.544;2023-08-31T04:36:24;5.90;;;1.80;;
50731;SDS011;36700;50.488;2.544;2023-08-31T04:38:53;4.78;;;1.48;;
50731;SDS011;36700;50.488;2.544;2023-08-31T04:41:19;3.03;;;1.40;;
50731;SDS011;36700;50.488;2.544;2023-08-31T04:43:45;3.45;;;1.50;;
50731;SDS011;36700;50.488;2.544;2023-08-31T04:46:13;3.53;;;1.50;;
50731;SDS011;36700;50.488;2.544;2023-08-31T04:48:40;5.68;;;1.58;;
50731;SDS011;36700;50.488;2.544;2023-08-31T04:51:05;5.13;;;1.50;;
50731;SDS011;36700;50.488;2.544;2023-08-31T04:53:31;4.40;;;1.55;;
50731;SDS011;36700;50.488;2.544;2023-08-31T04:55:58;5.32;;;1.50;;
50731;SDS011;36700;50.488;2.544;2023-08-31T04:58:24;4.72;;;1.77;;
50731;SDS011;36700;50.488;2.544;2023-08-31T05:00:53;5.80;;;1.65;;
50731;SDS011;36700;50.488;2.544;2023-08-31T05:03:19;4.30;;;1.50;;
50731;SDS011;36700;50.488;2.544;2023-08-31T05:05:45;3.58;;;1.35;;
50731;SDS011;36700;50.488;2.544;2023-08-31T05:08:11;4.28;;;1.60;;
50731;SDS011;36700;50.488;2.544;2023-08-31T05:10:37;3.67;;;1.23;;
50731;SDS011;36700;50.488;2.544;2023-08-31T05:13:03;3.05;;;1.35;;
50731;SDS011;36700;50.488;2.544;2023-08-31T05:15:29;5.90;;;1.83;;
50731;SDS011;36700;50.488;2.544;2023-08-31T05:17:55;2.90;;;1.35;;
50731;SDS011;36700;50.488;2.544;2023-08-31T05:20:21;3.28;;;1.48;;
50731;SDS011;36700;50.488;2.544;2023-08-31T05:22:50;4.47;;;1.60;;
50731;SDS011;36700;50.488;2.544;2023-08-31T05:25:16;3.55;;;1.48;;
50731;SDS011;36700;50.488;2.544;2023-08-31T05:27:43;4.55;;;1.50;;
50731;SDS011;36700;50.488;2.544;2023-08-31T05:30:09;4.13;;;1.60;;
50731;SDS011;36700;50.488;2.544;2023-08-31T05:32:35;3.78;;;1.50;;
50731;SDS011;36700;50.488;2.544;2023-08-31T05:35:01;4.85;;;1.70;;
50731;SDS011;36700;50.488;2.544;2023-08-31T05:37:31;4.03;;;1.40;;
50731;SDS011;36700;50.488;2.544;2023-08-31T05:39:59;4.03;;;1.45;;
50731;SDS011;36700;50.488;2.544;2023-08-31T05:42:24;6.60;;;1.70;;
50731;SDS011;36700;50.488;2.544;2023-08-31T05:44:50;4.22;;;1.58;;
50731;SDS011;36700;50.488;2.544;2023-08-31T05:47:16;3.55;;;1.40;;
50731;SDS011;36700;50.488;2.544;2023-08-31T05:49:42;4.68;;;1.60;;
50731;SDS011;36700;50.488;2.544;2023-08-31T05:52:08;3.50;;;1.55;;
50731;SDS011;36700;50.488;2.544;2023-08-31T05:54:34;4.40;;;1.77;;
50731;SDS011;36700;50.488;2.544;2023-08-31T05:57:01;4.85;;;1.50;;
50731;SDS011;36700;50.488;2.544;2023-08-31T05:59:29;3.47;;;1.38;;
50731;SDS011;36700;50.488;2.544;2023-08-31T06:01:55;4.60;;;1.50;;
50731;SDS011;36700;50.488;2.544;2023-08-31T06:04:20;4.80;;;1.40;;
50731;SDS011;36700;50.488;2.544;2023-08-31T06:06:47;6.18;;;1.52;;
50731;SDS011;36700;50.488;2.544;2023-08-31T06:09:13;4.07;;;1.55;;
50731;SDS011;36700;50.488;2.544;2023-08-31T06:11:39;4.20;;;1.58;;
50731;SDS011;36700;50.488;2.544;2023-08-31T06:14:06;4.60;;;1.70;;
50731;SDS011;36700;50.488;2.544;2023-08-31T06:16:32;4.25;;;1.63;;
50731;SDS011;36700;50.488;2.544;2023-08-31T06:18:59;4.35;;;1.45;;
50731;SDS011;36700;50.488;2.544;2023-08-31T06:21:25;3.95;;;1.40;;
50731;SDS011;36700;50.488;2.544;2023-08-31T06:23:51;4.72;;;1.55;;
50731;SDS011;36700;50.488;2.544;2023-08-31T06:26:17;5.03;;;1.50;;
50731;SDS011;36700;50.488;2.544;2023-08-31T06:28:43;5.50;;;1.60;;
50731;SDS011;36700;50.488;2.544;2023-08-31T06:31:09;4.45;;;1.60;;
50731;SDS011;36700;50.488;2.544;2023-08-31T06:33:35;4.28;;;1.50;;
50731;SDS011;36700;50.488;2.544;2023-08-31T06:36:02;4.28;;;1.63;;
50731;SDS011;36700;50.488;2.544;2023-08-31T06:38:28;3.30;;;1.40;;
50731;SDS011;36700;50.488;2.544;2023-08-31T06:40:55;4.32;;;1.40;;
50731;SDS011;36700;50.488;2.544;2023-08-31T06:43:25;4.60;;;1.75;;
50731;SDS011;36700;50.488;2.544;2023-08-31T06:45:54;4.15;;;1.52;;
50731;SDS011;36700;50.488;2.544;2023-08-31T06:48:20;5.13;;;1.63;;
50731;SDS011;36700;50.488;2.544;2023-08-31T06:50:47;4.55;;;1.58;;
50731;SDS011;36700;50.488;2.544;2023-08-31T06:53:13;5.47;;;1.50;;
50731;SDS011;36700;50.488;2.544;2023-08-31T06:55:39;5.53;;;1.60;;
50731;SDS011;36700;50.488;2.544;2023-08-31T06:58:06;6.50;;;1.60;;
50731;SDS011;36700;50.488;2.544;2023-08-31T07:00:33;5.00;;;1.77;;
50731;SDS011;36700;50.488;2.544;2023-08-31T07:02:59;2.67;;;1.55;;
50731;SDS011;36700;50.488;2.544;2023-08-31T07:05:26;6.30;;;1.80;;
50731;SDS011;36700;50.488;2.544;2023-08-31T07:07:53;3.92;;;1.42;;
50731;SDS011;36700;50.488;2.544;2023-08-31T07:10:20;2.55;;;1.25;;
50731;SDS011;36700;50.488;2.544;2023-08-31T07:12:47;4.93;;;1.40;;
50731;SDS011;36700;50.488;2.544;2023-08-31T07:15:14;3.75;;;1.45;;
50731;SDS011;36700;50.488;2.544;2023-08-31T07:17:42;4.75;;;1.45;;
50731;SDS011;36700;50.488;2.544;2023-08-31T07:20:08;3.25;;;1.67;;
50731;SDS011;36700;50.488;2.544;2023-08-31T07:22:35;5.60;;;1.85;;
50731;SDS011;36700;50.488;2.544;2023-08-31T07:25:01;5.60;;;1.58;;
50731;SDS011;36700;50.488;2.544;2023-08-31T07:27:29;3.50;;;1.45;;
50731;SDS011;36700;50.488;2.544;2023-08-31T07:29:55;3.97;;;1.52;;
50731;SDS011;36700;50.488;2.544;2023-08-31T07:32:20;4.13;;;1.40;;
50731;SDS011;36700;50.488;2.544;2023-08-31T07:34:47;6.13;;;1.70;;
50731;SDS011;36700;50.488;2.544;2023-08-31T07:37:13;6.63;;;1.70;;
50731;SDS011;36700;50.488;2.544;2023-08-31T07:39:39;4.30;;;1.50;;
50731;SDS011;36700;50.488;2.544;2023-08-31T07:42:05;3.83;;;1.40;;
50731;SDS011;36700;50.488;2.544;2023-08-31T07:44:32;5.80;;;1.73;;
50731;SDS011;36700;50.488;2.544;2023-08-31T07:46:57;4.10;;;1.58;;
50731;SDS011;36700;50.488;2.544;2023-08-31T07:49:23;4.70;;;1.55;;
50731;SDS011;36700;50.488;2.544;2023-08-31T07:51:49;4.85;;;1.65;;
50731;SDS011;36700;50.488;2.544;2023-08-31T07:54:22;4.63;;;1.60;;
50731;SDS011;36700;50.488;2.544;2023-08-31T07:56:48;4.30;;;1.55;;
50731;SDS011;36700;50.488;2.544;2023-08-31T07:59:14;5.53;;;1.52;;
50731;SDS011;36700;50.488;2.544;2023-08-31T08:01:40;7.05;;;2.17;;
50731;SDS011;36700;50.488;2.544;2023-08-31T08:04:10;7.53;;;1.98;;
50731;SDS011;36700;50.488;2.544;2023-08-31T08:06:36;8.98;;;2.13;;
50731;SDS011;36700;50.488;2.544;2023-08-31T08:09:03;14.02;;;2.20;;
50731;SDS011;36700;50.488;2.544;2023-08-31T08:11:30;11.82;;;2.58;;
50731;SDS011;36700;50.488;2.544;2023-08-31T08:13:56;17.85;;;3.00;;
50731;SDS011;36700;50.488;2.544;2023-08-31T08:16:22;17.65;;;2.60;;
50731;SDS011;36700;50.488;2.544;2023-08-31T08:18:49;23.17;;;3.30;;
50731;SDS011;36700;50.488;2.544;2023-08-31T08:21:15;15.13;;;2.80;;
50731;SDS011;36700;50.488;2.544;2023-08-31T08:23:41;21.23;;;2.90;;
50731;SDS011;36700;50.488;2.544;2023-08-31T08:26:07;17.20;;;2.88;;
50731;SDS011;36700;50.488;2.544;2023-08-31T08:28:33;12.30;;;2.78;;
50731;SDS011;36700;50.488;2.544;2023-08-31T08:31:02;15.23;;;2.70;;
50731;SDS011;36700;50.488;2.544;2023-08-31T08:33:29;15.48;;;2.90;;
50731;SDS011;36700;50.488;2.544;2023-08-31T08:35:57;14.10;;;3.00;;
50731;SDS011;36700;50.488;2.544;2023-08-31T08:38:23;12.88;;;2.70;;
50731;SDS011;36700;50.488;2.544;2023-08-31T08:40:49;13.88;;;2.85;;
50731;SDS011;36700;50.488;2.544;2023-08-31T08:43:15;10.40;;;2.75;;
50731;SDS011;36700;50.488;2.544;2023-08-31T08:45:52;13.85;;;2.92;;
50731;SDS011;36700;50.488;2.544;2023-08-31T08:48:20;11.75;;;3.00;;
50731;SDS011;36700;50.488;2.544;2023-08-31T08:50:46;14.88;;;3.30;;
50731;SDS011;36700;50.488;2.544;2023-08-31T08:53:12;14.38;;;3.45;;
50731;SDS011;36700;50.488;2.544;2023-08-31T08:55:40;13.55;;;3.53;;
50731;SDS011;36700;50.488;2.544;2023-08-31T08:58:06;17.15;;;3.67;;
50731;SDS011;36700;50.488;2.544;2023-08-31T09:00:32;13.48;;;3.60;;
50731;SDS011;36700;50.488;2.544;2023-08-31T09:03:01;10.50;;;3.13;;
50731;SDS011;36700;50.488;2.544;2023-08-31T09:05:33;15.15;;;3.78;;
50731;SDS011;36700;50.488;2.544;2023-08-31T09:10:35;12.63;;;2.95;;
50731;SDS011;36700;50.488;2.544;2023-08-31T09:13:08;12.70;;;2.85;;
50731;SDS011;36700;50.488;2.544;2023-08-31T09:15:36;13.73;;;3.08;;
50731;SDS011;36700;50.488;2.544;2023-08-31T09:18:13;13.90;;;2.83;;
50731;SDS011;36700;50.488;2.544;2023-08-31T09:20:49;14.13;;;2.88;;
50731;SDS011;36700;50.488;2.544;2023-08-31T09:23:15;12.82;;;2.92;;
50731;SDS011;36700;50.488;2.544;2023-08-31T09:25:42;14.48;;;2.80;;
50731;SDS011;36700;50.488;2.544;2023-08-31T09:28:12;14.90;;;2.92;;
50731;SDS011;36700;50.488;2.544;2023-08-31T09:30:39;15.05;;;2.30;;
50731;SDS011;36700;50.488;2.544;2023-08-31T09:33:15;13.85;;;2.70;;
50731;SDS011;36700;50.488;2.544;2023-08-31T09:35:53;11.57;;;2.60;;
50731;SDS011;36700;50.488;2.544;2023-08-31T09:38:22;9.32;;;2.45;;
50731;SDS011;36700;50.488;2.544;2023-08-31T09:40:48;13.63;;;2.80;;
50731;SDS011;36700;50.488;2.544;2023-08-31T09:43:23;13.02;;;2.38;;
50731;SDS011;36700;50.488;2.544;2023-08-31T09:45:49;15.15;;;2.60;;
50731;SDS011;36700;50.488;2.544;2023-08-31T09:48:19;7.80;;;2.13;;
50731;SDS011;36700;50.488;2.544;2023-08-31T09:50:45;15.07;;;2.55;;
50731;SDS011;36700;50.488;2.544;2023-08-31T09:53:11;11.23;;;2.30;;
50731;SDS011;36700;50.488;2.544;2023-08-31T09:55:41;10.85;;;2.78;;
50731;SDS011;36700;50.488;2.544;2023-08-31T09:58:08;10.65;;;2.63;;
50731;SDS011;36700;50.488;2.544;2023-08-31T10:00:35;11.68;;;2.40;;
50731;SDS011;36700;50.488;2.544;2023-08-31T10:03:03;13.82;;;2.17;;
50731;SDS011;36700;50.488;2.544;2023-08-31T10:05:30;14.27;;;3.05;;
50731;SDS011;36700;50.488;2.544;2023-08-31T10:07:58;9.57;;;2.30;;
50731;SDS011;36700;50.488;2.544;2023-08-31T10:10:26;12.13;;;2.65;;
50731;SDS011;36700;50.488;2.544;2023-08-31T10:12:53;13.13;;;2.50;;
50731;SDS011;36700;50.488;2.544;2023-08-31T10:15:20;11.15;;;2.45;;
50731;SDS011;36700;50.488;2.544;2023-08-31T10:17:46;10.85;;;2.28;;
50731;SDS011;36700;50.488;2.544;2023-08-31T10:20:13;11.45;;;2.33;;
50731;SDS011;36700;50.488;2.544;2023-08-31T10:22:41;10.90;;;2.20;;
50731;SDS011;36700;50.488;2.544;2023-08-31T10:25:08;14.65;;;2.80;;
50731;SDS011;36700;50.488;2.544;2023-08-31T10:27:40;8.52;;;2.30;;
50731;SDS011;36700;50.488;2.544;2023-08-31T10:30:13;11.05;;;2.13;;
50731;SDS011;36700;50.488;2.544;2023-08-31T10:32:40;11.55;;;2.55;;
50731;SDS011;36700;50.488;2.544;2023-08-31T10:35:07;9.93;;;2.25;;
50731;SDS011;36700;50.488;2.544;2023-08-31T10:37:34;8.52;;;2.25;;
50731;SDS011;36700;50.488;2.544;2023-08-31T10:40:07;11.50;;;2.55;;
50731;SDS011;36700;50.488;2.544;2023-08-31T10:42:44;17.42;;;2.65;;
50731;SDS011;36700;50.488;2.544;2023-08-31T10:45:10;11.15;;;2.38;;
50731;SDS011;36700;50.488;2.544;2023-08-31T10:47:37;14.57;;;2.92;;
50731;SDS011;36700;50.488;2.544;2023-08-31T10:50:21;13.43;;;2.33;;
50731;SDS011;36700;50.488;2.544;2023-08-31T10:52:48;9.45;;;2.22;;
50731;SDS011;36700;50.488;2.544;2023-08-31T10:55:14;10.70;;;2.30;;
50731;SDS011;36700;50.488;2.544;2023-08-31T10:57:40;14.48;;;2.47;;
50731;SDS011;36700;50.488;2.544;2023-08-31T11:00:09;12.85;;;2.35;;
50731;SDS011;36700;50.488;2.544;2023-08-31T11:02:38;28.40;;;2.65;;
50731;SDS011;36700;50.488;2.544;2023-08-31T11:05:11;10.10;;;2.08;;
50731;SDS011;36700;50.488;2.544;2023-08-31T11:07:43;20.40;;;2.42;;
50731;SDS011;36700;50.488;2.544;2023-08-31T11:12:39;10.95;;;2.40;;
50731;SDS011;36700;50.488;2.544;2023-08-31T11:15:06;8.25;;;1.83;;
50731;SDS011;36700;50.488;2.544;2023-08-31T11:17:33;14.32;;;2.53;;
50731;SDS011;36700;50.488;2.544;2023-08-31T11:20:00;10.48;;;2.05;;
50731;SDS011;36700;50.488;2.544;2023-08-31T11:22:27;12.85;;;2.50;;
50731;SDS011;36700;50.488;2.544;2023-08-31T11:24:53;9.52;;;2.53;;
50731;SDS011;36700;50.488;2.544;2023-08-31T11:27:19;10.70;;;2.33;;
50731;SDS011;36700;50.488;2.544;2023-08-31T11:29:46;9.23;;;2.17;;
50731;SDS011;36700;50.488;2.544;2023-08-31T11:32:12;8.27;;;2.10;;
50731;SDS011;36700;50.488;2.544;2023-08-31T11:34:42;7.05;;;2.03;;
50731;SDS011;36700;50.488;2.544;2023-08-31T11:37:09;9.55;;;2.50;;
50731;SDS011;36700;50.488;2.544;2023-08-31T11:39:42;9.93;;;2.23;;
50731;SDS011;36700;50.488;2.544;2023-08-31T11:42:13;9.93;;;2.33;;
50731;SDS011;36700;50.488;2.544;2023-08-31T11:44:41;11.43;;;2.33;;
50731;SDS011;36700;50.488;2.544;2023-08-31T11:47:07;9.23;;;2.50;;
50731;SDS011;36700;50.488;2.544;2023-08-31T11:49:33;14.32;;;2.50;;
50731;SDS011;36700;50.488;2.544;2023-08-31T11:51:59;7.63;;;1.83;;
50731;SDS011;36700;50.488;2.544;2023-08-31T11:54:25;9.77;;;2.35;;
50731;SDS011;36700;50.488;2.544;2023-08-31T11:56:51;11.85;;;2.50;;
50731;SDS011;36700;50.488;2.544;2023-08-31T11:59:18;8.00;;;2.17;;
50731;SDS011;36700;50.488;2.544;2023-08-31T12:01:48;8.82;;;2.22;;
50731;SDS011;36700;50.488;2.544;2023-08-31T12:04:21;7.88;;;2.15;;
50731;SDS011;36700;50.488;2.544;2023-08-31T12:06:51;10.90;;;2.58;;
50731;SDS011;36700;50.488;2.544;2023-08-31T12:09:19;8.93;;;2.22;;
50731;SDS011;36700;50.488;2.544;2023-08-31T12:11:52;9.25;;;2.10;;
50731;SDS011;36700;50.488;2.544;2023-08-31T12:14:19;8.25;;;2.40;;
50731;SDS011;36700;50.488;2.544;2023-08-31T12:16:46;7.45;;;2.05;;
50731;SDS011;36700;50.488;2.544;2023-08-31T12:19:13;9.75;;;2.28;;
50731;SDS011;36700;50.488;2.544;2023-08-31T12:21:39;9.73;;;2.05;;
50731;SDS011;36700;50.488;2.544;2023-08-31T12:24:05;8.30;;;2.10;;
50731;SDS011;36700;50.488;2.544;2023-08-31T12:26:32;11.98;;;2.17;;
50731;SDS011;36700;50.488;2.544;2023-08-31T12:28:58;9.77;;;2.03;;
50731;SDS011;36700;50.488;2.544;2023-08-31T12:31:24;8.43;;;2.22;;
50731;SDS011;36700;50.488;2.544;2023-08-31T12:33:51;8.45;;;2.17;;
50731;SDS011;36700;50.488;2.544;2023-08-31T12:36:17;7.13;;;2.17;;
50731;SDS011;36700;50.488;2.544;2023-08-31T12:38:43;10.85;;;2.08;;
50731;SDS011;36700;50.488;2.544;2023-08-31T12:41:10;10.07;;;2.40;;
50731;SDS011;36700;50.488;2.544;2023-08-31T12:43:36;10.98;;;2.13;;
50731;SDS011;36700;50.488;2.544;2023-08-31T12:46:02;8.23;;;2.38;;
50731;SDS011;36700;50.488;2.544;2023-08-31T12:48:32;7.50;;;2.20;;
50731;SDS011;36700;50.488;2.544;2023-08-31T12:50:59;8.43;;;2.10;;
50731;SDS011;36700;50.488;2.544;2023-08-31T12:53:26;8.85;;;2.15;;
50731;SDS011;36700;50.488;2.544;2023-08-31T12:55:53;7.72;;;2.25;;
50731;SDS011;36700;50.488;2.544;2023-08-31T12:58:20;10.13;;;2.05;;
50731;SDS011;36700;50.488;2.544;2023-08-31T13:00:47;9.65;;;2.55;;
50731;SDS011;36700;50.488;2.544;2023-08-31T13:03:16;6.80;;;2.10;;
50731;SDS011;36700;50.488;2.544;2023-08-31T13:05:42;11.57;;;2.15;;
50731;SDS011;36700;50.488;2.544;2023-08-31T13:08:08;9.77;;;2.42;;
50731;SDS011;36700;50.488;2.544;2023-08-31T13:10:35;11.52;;;2.63;;
50731;SDS011;36700;50.488;2.544;2023-08-31T13:13:01;9.40;;;2.33;;
50731;SDS011;36700;50.488;2.544;2023-08-31T13:15:27;9.02;;;2.53;;
50731;SDS011;36700;50.488;2.544;2023-08-31T13:17:55;11.10;;;2.97;;
50731;SDS011;36700;50.488;2.544;2023-08-31T13:20:21;8.60;;;2.40;;
50731;SDS011;36700;50.488;2.544;2023-08-31T13:22:47;12.05;;;2.70;;
50731;SDS011;36700;50.488;2.544;2023-08-31T13:25:13;12.25;;;2.40;;
50731;SDS011;36700;50.488;2.544;2023-08-31T13:27:39;12.40;;;2.95;;
50731;SDS011;36700;50.488;2.544;2023-08-31T13:30:05;11.50;;;2.47;;
50731;SDS011;36700;50.488;2.544;2023-08-31T13:32:33;12.02;;;3.03;;
50731;SDS011;36700;50.488;2.544;2023-08-31T13:35:00;9.73;;;2.75;;
50731;SDS011;36700;50.488;2.544;2023-08-31T13:37:26;10.07;;;2.10;;
50731;SDS011;36700;50.488;2.544;2023-08-31T13:39:52;12.48;;;2.70;;
50731;SDS011;36700;50.488;2.544;2023-08-31T13:42:20;9.77;;;2.20;;
50731;SDS011;36700;50.488;2.544;2023-08-31T13:44:46;8.13;;;2.40;;
50731;SDS011;36700;50.488;2.544;2023-08-31T13:47:13;11.90;;;2.78;;
50731;SDS011;36700;50.488;2.544;2023-08-31T13:49:38;14.35;;;2.80;;
50731;SDS011;36700;50.488;2.544;2023-08-31T13:52:07;10.30;;;2.60;;
50731;SDS011;36700;50.488;2.544;2023-08-31T13:54:35;9.23;;;2.50;;
50731;SDS011;36700;50.488;2.544;2023-08-31T13:57:01;9.65;;;2.60;;
50731;SDS011;36700;50.488;2.544;2023-08-31T13:59:27;14.70;;;2.53;;
50731;SDS011;36700;50.488;2.544;2023-08-31T14:01:53;7.70;;;2.40;;
50731;SDS011;36700;50.488;2.544;2023-08-31T14:04:20;11.25;;;2.60;;
50731;SDS011;36700;50.488;2.544;2023-08-31T14:06:47;10.88;;;2.50;;
50731;SDS011;36700;50.488;2.544;2023-08-31T14:09:14;8.40;;;2.13;;
50731;SDS011;36700;50.488;2.544;2023-08-31T14:11:40;11.52;;;2.50;;
50731;SDS011;36700;50.488;2.544;2023-08-31T14:14:06;9.00;;;2.42;;
50731;SDS011;36700;50.488;2.544;2023-08-31T14:16:36;8.73;;;2.35;;
50731;SDS011;36700;50.488;2.544;2023-08-31T14:19:03;9.15;;;2.22;;
50731;SDS011;36700;50.488;2.544;2023-08-31T14:21:30;11.02;;;2.60;;
50731;SDS011;36700;50.488;2.544;2023-08-31T14:23:56;9.27;;;2.67;;
50731;SDS011;36700;50.488;2.544;2023-08-31T14:26:22;7.97;;;2.40;;
50731;SDS011;36700;50.488;2.544;2023-08-31T14:28:52;9.43;;;2.35;;
50731;SDS011;36700;50.488;2.544;2023-08-31T14:31:18;7.43;;;2.38;;
50731;SDS011;36700;50.488;2.544;2023-08-31T14:33:45;9.23;;;2.75;;
50731;SDS011;36700;50.488;2.544;2023-08-31T14:36:12;7.65;;;2.50;;
50731;SDS011;36700;50.488;2.544;2023-08-31T14:38:40;10.85;;;2.70;;
50731;SDS011;36700;50.488;2.544;2023-08-31T14:41:06;12.73;;;2.85;;
50731;SDS011;36700;50.488;2.544;2023-08-31T14:43:32;10.98;;;2.80;;
50731;SDS011;36700;50.488;2.544;2023-08-31T14:45:59;11.60;;;2.83;;
50731;SDS011;36700;50.488;2.544;2023-08-31T14:48:29;9.77;;;2.75;;
50731;SDS011;36700;50.488;2.544;2023-08-31T14:50:57;7.88;;;2.10;;
50731;SDS011;36700;50.488;2.544;2023-08-31T14:53:26;11.98;;;2.58;;
50731;SDS011;36700;50.488;2.544;2023-08-31T14:55:53;9.02;;;2.50;;
50731;SDS011;36700;50.488;2.544;2023-08-31T14:58:19;8.68;;;2.50;;